Time;durP1;ratioP1;P1;durP2;ratioP2;P2;SDS_P1;SDS_P2;PMS_P1;PMS_P2;Temp;Humidity;BMP_temperature;BMP_pressure;BME280_temperature;BME280_humidity;BME280_pressure;Samples;Min_cycle;Max_cycle;Signal;HPM_P1;HPM_P2
2023/12/13 00:00:21;;;;;;;56.90;23.40;;;;;;;1.03;100.00;99009.66;109035;1257;72336;-67
2023/12/13 00:03:29;;;;;;;61.20;23.80;;;;;;;1.00;100.00;99010.64;109016;1260;70307;-68
2023/12/13 00:06:17;;;;;;;49.40;22.90;;;;;;;0.95;100.00;99002.88;109019;1258;72432;-68
2023/12/13 00:09:08;;;;;;;61.10;23.80;;;;;;;1.00;100.00;99010.13;109018;1257;57981;-65
2023/12/13 00:11:55;;;;;;;62.30;26.50;;;;;;;1.03;100.00;99004.40;109021;1257;60206;-67
2023/12/13 00:14:43;;;;;;;59.10;25.00;;;;;;;1.07;100.00;99008.04;109113;1257;72078;-65
2023/12/13 00:17:31;;;;;;;56.40;23.20;;;;;;;1.09;100.00;99007.01;109131;1257;66609;-67
2023/12/13 00:20:19;;;;;;;54.60;21.50;;;;;;;1.05;100.00;99003.79;109135;1257;70646;-66
2023/12/13 00:23:08;;;;;;;47.90;20.70;;;;;;;1.06;100.00;99004.77;109102;1257;57494;-66
2023/12/13 00:25:56;;;;;;;41.20;18.80;;;;;;;1.03;100.00;99005.11;109155;1257;61350;-67
2023/12/13 00:28:45;;;;;;;50.10;20.20;;;;;;;0.99;100.00;99005.85;109209;1257;72277;-66
2023/12/13 00:31:33;;;;;;;52.80;21.10;;;;;;;0.97;100.00;99001.91;109122;1257;67856;-69
2023/12/13 00:34:21;;;;;;;50.70;20.30;;;;;;;0.95;100.00;99001.66;109009;1257;70209;-66
2023/12/13 00:37:09;;;;;;;51.70;21.90;;;;;;;0.95;100.00;99002.70;109194;1257;58549;-65
2023/12/13 00:39:57;;;;;;;42.90;19.30;;;;;;;0.94;100.00;99004.02;109174;1257;58951;-66
2023/12/13 00:42:44;;;;;;;47.70;20.00;;;;;;;0.94;100.00;99003.48;109189;1257;72235;-66
2023/12/13 00:45:32;;;;;;;53.70;21.40;;;;;;;0.96;100.00;99001.27;109223;1256;67998;-64
2023/12/13 00:48:20;;;;;;;49.10;19.20;;;;;;;0.97;100.00;98999.80;109078;1257;72612;-66
2023/12/13 00:51:19;;;;;;;48.80;20.10;;;;;;;0.97;100.00;98998.96;109110;1257;56917;-65
2023/12/13 00:54:06;;;;;;;46.70;18.90;;;;;;;0.96;100.00;98998.51;109193;1256;59011;-65
2023/12/13 00:56:54;;;;;;;40.80;17.60;;;;;;;0.94;100.00;99001.73;109114;1257;72007;-65
2023/12/13 00:59:42;;;;;;;36.90;15.80;;;;;;;0.91;100.00;99000.32;108339;1257;1002640;-68
2023/12/13 01:02:30;;;;;;;34.80;17.20;;;;;;;0.88;100.00;98999.98;109038;1256;72811;-64
2023/12/13 01:05:18;;;;;;;36.00;16.20;;;;;;;0.88;100.00;98999.65;109047;1257;56800;-66
2023/12/13 01:08:06;;;;;;;37.40;16.10;;;;;;;0.89;100.00;99002.40;109090;1257;59997;-63
2023/12/13 01:10:54;;;;;;;30.60;15.00;;;;;;;0.90;100.00;99000.75;109199;1257;73402;-63
2023/12/13 01:13:43;;;;;;;30.20;13.40;;;;;;;0.93;100.00;98997.79;109192;1257;67621;-63
2023/12/13 01:16:31;;;;;;;36.00;15.00;;;;;;;0.95;100.00;98996.80;109199;1257;72841;-65
2023/12/13 01:19:19;;;;;;;32.80;15.30;;;;;;;0.97;100.00;98994.23;109201;1257;59712;-65
2023/12/13 01:22:08;;;;;;;35.40;14.80;;;;;;;1.01;100.00;98993.67;109193;1257;61048;-64
2023/12/13 01:24:58;;;;;;;44.40;17.90;;;;;;;1.02;100.00;98990.12;109054;1257;72184;-66
2023/12/13 01:27:45;;;;;;;44.10;19.80;;;;;;;1.05;100.00;98985.46;108969;1257;66911;-65
2023/12/13 01:30:33;;;;;;;39.80;17.50;;;;;;;1.06;100.00;98982.92;109150;1257;72442;-67
2023/12/13 01:33:21;;;;;;;40.00;16.40;;;;;;;1.06;100.00;98977.73;109170;1257;57334;-67
2023/12/13 01:36:09;;;;;;;36.70;17.40;;;;;;;1.00;100.00;98975.55;108242;1257;1003103;-65
2023/12/13 01:38:57;;;;;;;42.50;14.80;;;;;;;0.95;100.00;98979.69;109124;1257;73573;-65
2023/12/13 01:41:45;;;;;;;30.40;12.70;;;;;;;0.88;100.00;98981.81;109053;1257;66661;-64
2023/12/13 01:44:33;;;;;;;29.60;13.50;;;;;;;0.84;100.00;98986.58;109200;1257;72452;-65
2023/12/13 01:47:21;;;;;;;32.70;13.00;;;;;;;0.85;100.00;98984.77;109129;1257;58496;-65
2023/12/13 01:50:09;;;;;;;30.60;12.10;;;;;;;0.89;100.00;98982.83;109182;1257;58722;-65
2023/12/13 01:52:57;;;;;;;28.60;12.00;;;;;;;0.93;100.00;98978.78;109323;1257;71864;-66
2023/12/13 01:55:45;;;;;;;31.30;11.70;;;;;;;0.97;100.00;98978.15;109004;1257;68609;-64
2023/12/13 01:58:38;;;;;;;28.10;11.50;;;;;;;0.98;100.00;98983.33;109039;1257;72849;-65
2023/12/13 02:01:26;;;;;;;26.00;11.30;;;;;;;1.00;100.00;98987.95;109084;1257;57054;-65
2023/12/13 02:04:17;;;;;;;25.30;10.40;;;;;;;0.98;100.00;98990.52;108291;1257;1002356;-65
2023/12/13 02:07:05;;;;;;;28.30;11.20;;;;;;;0.92;100.00;98992.44;109074;1257;72132;-64
2023/12/13 02:09:53;;;;;;;27.60;11.30;;;;;;;0.88;100.00;98991.39;109046;1257;66488;-65
2023/12/13 02:12:42;;;;;;;28.50;11.80;;;;;;;0.88;100.00;98985.11;109038;1257;72848;-64
2023/12/13 02:15:35;;;;;;;28.70;12.00;;;;;;;0.91;100.00;98984.98;108978;1257;58680;-65
2023/12/13 02:18:23;;;;;;;27.00;11.10;;;;;;;0.93;100.00;98988.52;109051;1257;60278;-65
2023/12/13 02:21:11;;;;;;;23.20;10.80;;;;;;;0.95;100.00;98982.64;109010;1257;72210;-67
2023/12/13 02:24:04;;;;;;;27.70;11.60;;;;;;;0.98;100.00;98972.88;109007;1257;68697;-64
2023/12/13 02:26:52;;;;;;;20.10;9.20;;;;;;;0.96;100.00;98956.58;109027;1257;72753;-64
2023/12/13 02:29:39;;;;;;;20.10;9.10;;;;;;;0.90;100.00;98945.38;109158;1257;56930;-64
2023/12/13 02:32:27;;;;;;;19.80;8.80;;;;;;;0.85;100.00;98930.29;109089;1258;59050;-64
2023/12/13 02:35:16;;;;;;;19.70;7.80;;;;;;;0.79;100.00;98929.22;109141;1257;71117;-66
2023/12/13 02:38:04;;;;;;;18.70;7.20;;;;;;;0.72;100.00;98925.39;109121;1257;67821;-65
2023/12/13 02:40:55;;;;;;;15.30;6.30;;;;;;;0.67;100.00;98922.52;108289;1258;1002225;-65
2023/12/13 02:44:00;;;;;;;13.00;6.00;;;;;;;0.60;100.00;98921.17;109068;1258;58503;-65
2023/12/13 02:46:59;;;;;;;12.00;5.00;;;;;;;0.52;100.00;98924.59;109022;1257;60584;-64
2023/12/13 02:49:46;;;;;;;11.60;4.70;;;;;;;0.46;100.00;98928.02;109116;1257;70320;-63
2023/12/13 02:52:34;;;;;;;13.30;4.80;;;;;;;0.45;100.00;98936.45;109160;1257;68861;-65
2023/12/13 02:55:22;;;;;;;9.50;4.20;;;;;;;0.46;100.00;98944.41;109067;1257;72768;-64
2023/12/13 02:58:10;;;;;;;11.50;4.50;;;;;;;0.52;100.00;98949.75;109116;1257;56817;-65
2023/12/13 03:00:59;;;;;;;12.30;4.90;;;;;;;0.55;100.00;98958.80;109042;1260;59983;-65
2023/12/13 03:03:48;;;;;;;13.80;5.40;;;;;;;0.57;100.00;98965.15;109060;1257;72398;-65
2023/12/13 03:06:37;;;;;;;11.10;4.70;;;;;;;0.59;100.00;98967.16;109140;1257;66979;-65
2023/12/13 03:09:25;;;;;;;12.60;4.70;;;;;;;0.56;100.00;98969.39;109133;1257;70182;-65
2023/12/13 03:12:15;;;;;;;12.00;5.00;;;;;;;0.51;100.00;98969.50;109155;1257;58564;-68
2023/12/13 03:15:07;;;;;;;14.00;5.30;;;;;;;0.49;100.00;98968.02;109103;1257;58715;-65
2023/12/13 03:17:55;;;;;;;13.50;5.70;;;;;;;0.48;100.00;98964.91;109236;1257;71716;-66
2023/12/13 03:20:43;;;;;;;12.90;5.50;;;;;;;0.53;100.00;98972.20;109101;1257;67425;-65
2023/12/13 03:23:31;;;;;;;13.00;5.60;;;;;;;0.56;100.00;98972.02;109186;1257;72682;-65
2023/12/13 03:26:19;;;;;;;13.10;5.30;;;;;;;0.55;100.00;98974.32;109019;1257;59866;-66
2023/12/13 03:29:07;;;;;;;12.20;5.50;;;;;;;0.56;100.00;98975.16;109208;1256;61421;-65
2023/12/13 03:31:55;;;;;;;12.70;5.20;;;;;;;0.58;100.00;98975.04;109078;1257;72297;-64
2023/12/13 03:34:43;;;;;;;12.90;5.10;;;;;;;0.61;100.00;98970.70;109081;1257;67637;-66
2023/12/13 03:37:31;;;;;;;13.90;5.50;;;;;;;0.67;100.00;98967.92;109128;1257;72404;-65
2023/12/13 03:40:19;;;;;;;13.90;5.80;;;;;;;0.72;100.00;98967.15;108380;1257;1002491;-65
2023/12/13 03:43:07;;;;;;;14.40;5.70;;;;;;;0.74;100.00;98975.75;109192;1257;59475;-66
2023/12/13 03:45:54;;;;;;;12.80;5.70;;;;;;;0.75;100.00;98976.21;108442;1257;1002392;-65
2023/12/13 03:48:42;;;;;;;14.70;6.70;;;;;;;0.76;100.00;98974.98;109205;1257;67997;-65
2023/12/13 03:51:30;;;;;;;14.50;7.30;;;;;;;0.75;100.00;98981.13;109234;1257;71744;-65
2023/12/13 03:54:18;;;;;;;14.10;7.00;;;;;;;0.71;100.00;98977.66;109136;1257;57135;-66
2023/12/13 03:57:06;;;;;;;16.30;6.90;;;;;;;0.71;100.00;98971.04;109192;1257;58705;-64
2023/12/13 03:59:53;;;;;;;15.20;7.00;;;;;;;0.75;100.00;98961.89;109087;1257;72296;-64
2023/12/13 04:02:41;;;;;;;14.10;6.50;;;;;;;0.78;100.00;98966.28;109160;1257;68040;-65
2023/12/13 04:05:29;;;;;;;13.30;6.20;;;;;;;0.82;100.00;98972.34;109094;1257;72267;-66
2023/12/13 04:08:17;;;;;;;11.80;5.00;;;;;;;0.83;100.00;98976.83;108929;1256;56846;-65
2023/12/13 04:11:06;;;;;;;11.00;4.90;;;;;;;0.82;100.00;98974.77;109198;1257;58787;-67
2023/12/13 04:13:54;;;;;;;10.80;4.50;;;;;;;0.79;100.00;98966.78;108452;1256;1002291;-65
2023/12/13 04:16:42;;;;;;;11.50;4.50;;;;;;;0.79;100.00;98966.93;109193;1257;66706;-67
2023/12/13 04:19:31;;;;;;;11.90;5.10;;;;;;;0.78;100.00;98969.58;109153;1257;72640;-67
2023/12/13 04:22:19;;;;;;;11.30;4.90;;;;;;;0.74;100.00;98961.61;109136;1257;57665;-66
2023/12/13 04:25:07;;;;;;;14.20;5.80;;;;;;;0.76;100.00;98970.05;109128;1257;57819;-64
2023/12/13 04:27:55;;;;;;;13.50;4.90;;;;;;;0.76;100.00;98967.25;109165;1257;72289;-66
2023/12/13 04:30:43;;;;;;;11.80;4.70;;;;;;;0.75;100.00;98959.85;109083;1257;66535;-69
2023/12/13 04:33:33;;;;;;;11.40;5.10;;;;;;;0.71;100.00;98950.77;109056;1257;71542;-70
2023/12/13 04:36:21;;;;;;;12.30;4.30;;;;;;;0.74;100.00;98957.45;109133;1257;58465;-69
2023/12/13 04:39:10;;;;;;;12.90;4.70;;;;;;;0.77;100.00;98958.69;109105;1256;60034;-67
2023/12/13 04:41:58;;;;;;;10.80;4.00;;;;;;;0.78;100.00;98953.36;109108;1257;72328;-66
2023/12/13 04:44:47;;;;;;;12.80;4.90;;;;;;;0.79;100.00;98950.20;109169;1257;67714;-69
2023/12/13 04:47:34;;;;;;;12.20;4.80;;;;;;;0.76;100.00;98951.19;109114;1257;72773;-68
2023/12/13 04:50:23;;;;;;;14.10;5.30;;;;;;;0.69;100.00;98946.90;109146;1257;58413;-68
2023/12/13 04:53:11;;;;;;;12.30;5.30;;;;;;;0.71;100.00;98952.17;109061;1257;58895;-67
2023/12/13 04:55:58;;;;;;;12.10;4.90;;;;;;;0.74;100.00;98944.00;109182;1257;71103;-68
2023/12/13 04:58:46;;;;;;;14.40;5.30;;;;;;;0.80;100.00;98946.77;108987;1257;66357;-68
2023/12/13 05:01:34;;;;;;;11.60;5.70;;;;;;;0.84;100.00;98948.34;109034;1257;72672;-65
2023/12/13 05:04:22;;;;;;;14.00;5.90;;;;;;;0.85;100.00;98950.35;109166;1257;57599;-65
2023/12/13 05:07:10;;;;;;;15.50;6.40;;;;;;;0.85;100.00;98946.34;109102;1257;59290;-66
2023/12/13 05:09:58;;;;;;;13.10;6.00;;;;;;;0.88;100.00;98943.55;109107;1257;71583;-66
2023/12/13 05:12:47;;;;;;;14.20;6.10;;;;;;;0.84;100.00;98946.76;108366;1256;1002831;-64
2023/12/13 05:15:34;;;;;;;15.40;6.80;;;;;;;0.79;100.00;98949.28;109122;1256;72389;-66
2023/12/13 05:18:22;;;;;;;15.00;6.50;;;;;;;0.79;100.00;98951.58;109083;1257;57185;-64
2023/12/13 05:21:11;;;;;;;15.50;6.80;;;;;;;0.78;100.00;98946.94;109102;1257;59991;-65
2023/12/13 05:23:58;;;;;;;13.70;6.60;;;;;;;0.76;100.00;98945.13;109068;1257;72008;-69
2023/12/13 05:26:46;;;;;;;12.40;6.10;;;;;;;0.76;100.00;98945.96;109056;1257;67847;-67
2023/12/13 05:29:34;;;;;;;13.10;6.30;;;;;;;0.79;100.00;98941.76;109193;1255;72417;-66
2023/12/13 05:32:24;;;;;;;14.60;6.60;;;;;;;0.82;100.00;98943.54;109154;1257;59763;-65
2023/12/13 05:35:12;;;;;;;14.50;6.10;;;;;;;0.83;100.00;98940.31;109194;1256;59011;-68
2023/12/13 05:38:00;;;;;;;13.60;6.20;;;;;;;0.91;100.00;98937.29;109069;1257;72389;-69
2023/12/13 05:40:47;;;;;;;15.10;6.40;;;;;;;0.96;100.00;98943.31;109165;1257;68934;-66
2023/12/13 05:43:36;;;;;;;17.10;6.00;;;;;;;0.98;100.00;98941.58;109077;1257;71576;-67
2023/12/13 05:46:24;;;;;;;13.40;6.00;;;;;;;0.99;100.00;98934.56;108341;1256;1002186;-69
2023/12/13 05:49:12;;;;;;;16.80;7.40;;;;;;;0.96;100.00;98932.27;109020;1257;59333;-68
2023/12/13 05:52:00;;;;;;;20.00;8.10;;;;;;;0.94;100.00;98936.91;109103;1257;70968;-67
2023/12/13 05:54:48;;;;;;;25.90;10.50;;;;;;;0.91;100.00;98941.29;109101;1260;67588;-67
2023/12/13 05:57:35;;;;;;;21.10;9.70;;;;;;;0.90;100.00;98942.42;109284;1256;73792;-64
2023/12/13 06:00:23;;;;;;;18.30;8.60;;;;;;;0.89;100.00;98939.30;108932;1255;57842;-67
2023/12/13 06:03:11;;;;;;;15.40;6.90;;;;;;;0.88;100.00;98940.39;108980;1256;60055;-66
2023/12/13 06:05:58;;;;;;;13.50;6.30;;;;;;;0.88;100.00;98945.84;109195;1255;72205;-70
2023/12/13 06:08:46;;;;;;;13.50;6.80;;;;;;;0.89;100.00;98943.70;109191;1257;68865;-66
2023/12/13 06:11:34;;;;;;;21.60;8.80;;;;;;;0.89;100.00;98942.98;109206;1256;72679;-67
2023/12/13 06:14:22;;;;;;;34.40;11.80;;;;;;;0.91;100.00;98944.96;109183;1256;56905;-64
2023/12/13 06:17:10;;;;;;;29.10;11.10;;;;;;;0.93;100.00;98942.93;108337;1256;1002261;-67
2023/12/13 06:19:58;;;;;;;29.30;9.70;;;;;;;0.94;100.00;98936.08;109187;1257;71392;-67
2023/12/13 06:22:45;;;;;;;31.00;10.50;;;;;;;0.94;100.00;98936.23;109096;1257;68191;-65
2023/12/13 06:25:33;;;;;;;29.10;10.60;;;;;;;0.95;100.00;98936.70;109085;1256;71522;-66
2023/12/13 06:28:22;;;;;;;26.10;9.90;;;;;;;0.99;100.00;98934.40;109025;1257;57292;-68
2023/12/13 06:31:10;;;;;;;27.00;10.00;;;;;;;1.00;100.00;98929.47;109073;1257;60279;-65
2023/12/13 06:33:58;;;;;;;27.60;10.00;;;;;;;0.99;100.00;98930.04;109207;1257;73386;-63
2023/12/13 06:36:46;;;;;;;28.60;10.70;;;;;;;0.99;100.00;98933.35;109222;1256;65710;-65
2023/12/13 06:39:34;;;;;;;25.80;9.00;;;;;;;0.97;100.00;98937.66;109091;1257;73462;-65
2023/12/13 06:42:23;;;;;;;29.40;10.80;;;;;;;0.95;100.00;98935.30;108428;1257;1002386;-69
2023/12/13 06:45:11;;;;;;;25.60;10.50;;;;;;;0.94;100.00;98936.05;109094;1257;61045;-64
2023/12/13 06:47:59;;;;;;;27.40;10.90;;;;;;;0.92;100.00;98934.96;109075;1257;71988;-63
2023/12/13 06:50:48;;;;;;;25.20;10.80;;;;;;;0.90;100.00;98934.73;109074;1257;67662;-66
2023/12/13 06:53:37;;;;;;;23.60;11.10;;;;;;;0.91;100.00;98934.49;109021;1257;71102;-69
2023/12/13 06:56:25;;;;;;;24.40;11.60;;;;;;;0.95;100.00;98931.33;109127;1257;58451;-66
2023/12/13 06:59:12;;;;;;;24.20;10.90;;;;;;;0.97;100.00;98935.34;109133;1257;60065;-65
2023/12/13 07:02:00;;;;;;;22.90;11.00;;;;;;;1.00;100.00;98933.66;109129;1257;71922;-66
2023/12/13 07:04:48;;;;;;;27.10;12.70;;;;;;;1.00;100.00;98933.98;109149;1257;67830;-68
2023/12/13 07:07:36;;;;;;;38.10;14.60;;;;;;;1.02;100.00;98930.90;109151;1257;73473;-66
2023/12/13 07:10:26;;;;;;;37.10;15.10;;;;;;;1.01;100.00;98925.54;109187;1257;57300;-67
2023/12/13 07:13:14;;;;;;;29.00;12.20;;;;;;;1.00;100.00;98921.02;109182;1257;59108;-67
2023/12/13 07:16:07;;;;;;;26.20;12.30;;;;;;;1.00;100.00;98924.38;109102;1256;73214;-68
2023/12/13 07:18:55;;;;;;;93.20;39.60;;;;;;;0.98;100.00;98928.15;109282;1257;66650;-68
2023/12/13 07:21:44;;;;;;;33.80;13.60;;;;;;;0.98;100.00;98929.71;109084;1257;71323;-65
2023/12/13 07:24:31;;;;;;;26.60;12.20;;;;;;;1.04;100.00;98920.33;109236;1257;59614;-67
2023/12/13 07:27:20;;;;;;;26.30;11.60;;;;;;;1.06;100.00;98917.74;109039;1256;60358;-67
2023/12/13 07:30:08;;;;;;;28.60;12.20;;;;;;;1.13;100.00;98928.73;109124;1257;72109;-66
2023/12/13 07:32:56;;;;;;;23.30;11.20;;;;;;;1.14;100.00;98929.89;109114;1257;68043;-64
2023/12/13 07:35:47;;;;;;;20.90;9.80;;;;;;;1.16;100.00;98929.23;109040;1260;72664;-63
2023/12/13 07:38:34;;;;;;;19.70;9.10;;;;;;;1.18;100.00;98926.30;109093;1257;57069;-65
2023/12/13 07:41:22;;;;;;;22.30;9.60;;;;;;;1.24;100.00;98921.64;109014;1257;59786;-65
2023/12/13 07:44:10;;;;;;;24.30;11.40;;;;;;;1.29;100.00;98922.05;109048;1257;72722;-72
2023/12/13 07:47:02;;;;;;;26.40;13.30;;;;;;;1.34;100.00;98923.52;109056;1257;67770;-68
2023/12/13 07:49:51;;;;;;;34.00;18.60;;;;;;;1.38;100.00;98920.83;109087;1257;72230;-67
2023/12/13 07:52:39;;;;;;;29.90;16.10;;;;;;;1.44;100.00;98920.13;109178;1257;57085;-64
2023/12/13 07:55:28;;;;;;;31.60;16.30;;;;;;;1.49;100.00;98917.19;109050;1257;60564;-66
2023/12/13 07:58:18;;;;;;;30.40;16.00;;;;;;;1.54;100.00;98916.89;109048;1257;73172;-66
2023/12/13 08:01:07;;;;;;;33.80;16.90;;;;;;;1.58;100.00;98910.95;109023;1257;68116;-66
2023/12/13 08:03:56;;;;;;;24.90;15.20;;;;;;;1.61;100.00;98923.33;108816;1262;73775;-65
2023/12/13 08:06:46;;;;;;;25.90;12.50;;;;;;;1.67;100.00;98921.94;108869;1263;57307;-68
2023/12/13 08:09:34;;;;;;;26.70;14.10;;;;;;;1.71;100.00;98922.39;108798;1262;58752;-68
2023/12/13 08:12:22;;;;;;;27.50;13.80;;;;;;;1.76;100.00;98919.68;108826;1262;70794;-70
2023/12/13 08:15:11;;;;;;;23.40;11.50;;;;;;;1.81;100.00;98918.63;108752;1262;66796;-65
2023/12/13 08:17:59;;;;;;;27.10;12.60;;;;;;;1.88;100.00;98918.43;108843;1262;74183;-67
2023/12/13 08:20:47;;;;;;;22.60;11.90;;;;;;;1.95;100.00;98920.96;108811;1262;58774;-62
2023/12/13 08:23:36;;;;;;;23.70;11.50;;;;;;;2.02;100.00;98920.54;108786;1263;58789;-63
2023/12/13 08:26:25;;;;;;;24.90;10.80;;;;;;;2.10;100.00;98923.05;108887;1262;72146;-66
2023/12/13 08:29:13;;;;;;;23.60;11.10;;;;;;;2.17;100.00;98917.19;108756;1262;67780;-63
2023/12/13 08:32:02;;;;;;;21.00;10.90;;;;;;;2.21;100.00;98915.00;108832;1262;72542;-66
2023/12/13 08:34:50;;;;;;;22.10;9.80;;;;;;;2.26;100.00;98911.55;108952;1257;57088;-63
2023/12/13 08:37:38;;;;;;;27.90;9.90;;;;;;;2.29;100.00;98912.08;109091;1257;59063;-63
2023/12/13 08:40:26;;;;;;;23.60;10.70;;;;;;;2.33;100.00;98916.21;108955;1258;72147;-64
2023/12/13 08:43:14;;;;;;;26.70;11.30;;;;;;;2.38;100.00;98912.05;109144;1257;67632;-60
2023/12/13 08:46:02;;;;;;;26.30;10.80;;;;;;;2.45;100.00;98912.52;109108;1257;71729;-61
2023/12/13 08:48:50;;;;;;;30.40;13.00;;;;;;;2.49;100.00;98916.07;109176;1257;58641;-62
2023/12/13 08:51:38;;;;;;;33.70;12.90;;;;;;;2.57;100.00;98917.90;109019;1257;58601;-61
2023/12/13 08:54:27;;;;;;;28.10;11.40;;;;;;;2.62;100.00;98914.60;109236;1257;70666;-61
2023/12/13 08:57:15;;;;;;;29.50;12.00;;;;;;;2.65;100.00;98915.08;109172;1257;65584;-61
2023/12/13 09:00:07;;;;;;;28.80;10.80;;;;;;;2.67;100.00;98920.36;109190;1257;72533;-61
2023/12/13 09:02:58;;;;;;;28.40;10.80;;;;;;;2.69;100.00;98918.88;109163;1257;57612;-60
2023/12/13 09:05:47;;;;;;;24.40;10.50;;;;;;;2.72;100.00;98919.70;109154;1257;61287;-60
2023/12/13 09:08:35;;;;;;;26.60;11.20;;;;;;;2.78;100.00;98919.02;109061;1257;72900;-62
2023/12/13 09:11:23;;;;;;;18.90;8.40;;;;;;;2.82;100.00;98917.88;109108;1257;66393;-61
2023/12/13 09:14:11;;;;;;;22.50;9.20;;;;;;;2.86;100.00;98921.62;109056;1257;72372;-63
2023/12/13 09:17:00;;;;;;;20.80;8.70;;;;;;;2.90;100.00;98921.88;109112;1259;57708;-61
2023/12/13 09:19:48;;;;;;;20.10;8.70;;;;;;;2.95;100.00;98925.83;109099;1260;60093;-62
2023/12/13 09:22:36;;;;;;;22.30;10.30;;;;;;;2.96;100.00;98927.84;109124;1257;72375;-61
2023/12/13 09:25:25;;;;;;;21.30;9.20;;;;;;;2.98;100.00;98928.80;109033;1257;66369;-62
2023/12/13 09:28:13;;;;;;;20.00;8.90;;;;;;;2.96;100.00;98928.37;108998;1259;72803;-62
2023/12/13 09:31:04;;;;;;;20.70;9.20;;;;;;;2.96;100.00;98927.52;109015;1257;57452;-63
2023/12/13 09:33:55;;;;;;;20.10;8.40;;;;;;;2.98;100.00;98930.54;109098;1260;61054;-64
2023/12/13 09:36:42;;;;;;;17.20;7.20;;;;;;;2.98;100.00;98928.73;108978;1257;72778;-63
2023/12/13 09:39:31;;;;;;;21.00;8.70;;;;;;;3.01;100.00;98922.94;109183;1257;66676;-64
2023/12/13 09:42:19;;;;;;;19.70;8.80;;;;;;;3.02;100.00;98921.88;109091;1257;72324;-64
2023/12/13 09:45:08;;;;;;;16.00;6.90;;;;;;;3.02;100.00;98920.98;109155;1257;56970;-62
2023/12/13 09:47:56;;;;;;;18.90;7.70;;;;;;;2.99;100.00;98920.61;109196;1257;58719;-64
2023/12/13 09:50:46;;;;;;;14.70;5.70;;;;;;;2.98;99.96;98922.27;109064;1256;71910;-63
2023/12/13 09:53:38;;;;;;;15.40;5.70;;;;;;;2.93;98.15;98927.16;109122;1257;68918;-62
2023/12/13 09:56:26;;;;;;;12.70;4.80;;;;;;;2.91;97.87;98930.13;109102;1257;71934;-64
2023/12/13 09:59:13;;;;;;;12.10;5.60;;;;;;;2.82;95.83;98929.77;109203;1257;58335;-63
2023/12/13 10:02:01;;;;;;;11.40;4.90;;;;;;;2.77;95.62;98927.84;109282;1256;58995;-63
2023/12/13 10:04:52;;;;;;;11.90;4.70;;;;;;;2.74;96.59;98932.07;109424;1257;70950;-62
2023/12/13 10:07:40;;;;;;;11.80;4.80;;;;;;;2.71;96.71;98927.64;109250;1256;68014;-67
2023/12/13 10:10:31;;;;;;;11.90;5.10;;;;;;;2.69;97.09;98929.52;109393;1257;71159;-67
2023/12/13 10:13:19;;;;;;;13.20;5.60;;;;;;;2.67;95.84;98924.91;109433;1256;56837;-63
2023/12/13 10:16:11;;;;;;;11.50;5.20;;;;;;;2.65;95.78;98921.07;109267;1257;61179;-62
2023/12/13 10:18:59;;;;;;;12.80;4.70;;;;;;;2.65;96.43;98916.13;109244;1257;72249;-63
2023/12/13 10:21:52;;;;;;;12.20;4.80;;;;;;;2.67;96.35;98918.83;109269;1256;68006;-62
2023/12/13 10:24:41;;;;;;;12.10;5.10;;;;;;;2.71;97.02;98915.60;109225;1257;72402;-62
2023/12/13 10:27:30;;;;;;;10.60;4.50;;;;;;;2.76;96.31;98915.77;109230;1257;57024;-63
2023/12/13 10:30:19;;;;;;;11.20;4.30;;;;;;;2.83;96.21;98913.10;109075;1256;61370;-64
2023/12/13 10:33:07;;;;;;;13.60;4.40;;;;;;;2.83;94.68;98909.23;109290;1257;71224;-62
2023/12/13 10:35:58;;;;;;;11.40;5.00;;;;;;;2.86;95.67;98903.27;109206;1257;67713;-62
2023/12/13 10:38:52;;;;;;;11.10;4.60;;;;;;;2.90;95.48;98901.07;109145;1258;71847;-62
2023/12/13 10:41:44;;;;;;;14.10;5.20;;;;;;;2.91;92.75;98904.35;109146;1257;57599;-64
2023/12/13 10:44:35;;;;;;;13.60;5.40;;;;;;;2.88;92.38;98905.73;108925;1263;60096;-63
2023/12/13 10:47:25;;;;;;;12.30;4.80;;;;;;;2.87;92.98;98906.30;108936;1262;69666;-62
2023/12/13 10:50:15;;;;;;;12.10;4.70;;;;;;;2.92;93.37;98902.86;108863;1261;66309;-63
2023/12/13 10:53:06;;;;;;;11.00;4.90;;;;;;;2.96;93.06;98906.59;108787;1261;74025;-62
2023/12/13 10:55:56;;;;;;;10.60;4.50;;;;;;;2.98;93.43;98906.34;108908;1262;58218;-63
2023/12/13 10:58:44;;;;;;;13.80;5.60;;;;;;;2.98;91.72;98911.45;108856;1260;60032;-62
2023/12/13 11:01:34;;;;;;;12.70;5.20;;;;;;;2.95;91.67;98912.15;108816;1263;71117;-63
2023/12/13 11:04:22;;;;;;;13.90;4.80;;;;;;;2.95;92.09;98914.40;108892;1263;66613;-65
2023/12/13 11:07:11;;;;;;;11.30;4.60;;;;;;;2.97;92.08;98912.55;108890;1260;72613;-65
2023/12/13 11:10:06;;;;;;;11.70;5.10;;;;;;;2.99;92.55;98918.20;108877;1260;58006;-64
2023/12/13 11:12:55;;;;;;;12.20;4.80;;;;;;;3.02;92.23;98917.82;108852;1263;59949;-63
2023/12/13 11:15:43;;;;;;;13.00;4.30;;;;;;;3.03;92.07;98916.88;109011;1257;72556;-61
2023/12/13 11:18:32;;;;;;;11.40;4.70;;;;;;;3.04;92.05;98915.04;109052;1260;68991;-63
2023/12/13 11:21:26;;;;;;;13.00;4.90;;;;;;;3.06;92.40;98917.71;109028;1260;72335;-62
2023/12/13 11:24:23;;;;;;;16.80;7.10;;;;;;;3.10;92.02;98911.17;109078;1259;58422;-62
2023/12/13 11:27:13;;;;;;;14.40;5.10;;;;;;;3.12;91.91;98911.60;109140;1258;60329;-64
2023/12/13 11:30:13;;;;;;;14.20;6.00;;;;;;;3.13;91.37;98911.52;109025;1258;71018;-64
2023/12/13 11:33:11;;;;;;;16.30;5.90;;;;;;;3.15;91.81;98916.11;109100;1258;67719;-62
2023/12/13 11:36:00;;;;;;;24.60;8.50;;;;;;;3.14;89.93;98920.95;109099;1259;73627;-62
2023/12/13 11:38:56;;;;;;;23.40;8.60;;;;;;;3.07;89.35;98920.63;109081;1258;57366;-62
2023/12/13 11:41:44;;;;;;;17.70;7.50;;;;;;;3.05;90.24;98925.16;109138;1258;60068;-64
2023/12/13 11:44:34;;;;;;;15.50;6.00;;;;;;;3.05;90.68;98924.11;109164;1257;72020;-62
2023/12/13 11:47:22;;;;;;;28.70;10.80;;;;;;;3.06;90.61;98928.98;109160;1257;68874;-63
2023/12/13 11:50:11;;;;;;;23.20;9.30;;;;;;;3.09;90.84;98929.10;109104;1256;74081;-64
2023/12/13 11:52:59;;;;;;;20.10;7.50;;;;;;;3.13;90.73;98930.30;109116;1257;57907;-61
2023/12/13 11:55:47;;;;;;;19.40;8.30;;;;;;;3.15;90.77;98934.70;109271;1257;59166;-62
2023/12/13 11:58:36;;;;;;;19.00;8.00;;;;;;;3.16;91.12;98934.45;109272;1260;73274;-62
2023/12/13 12:01:24;;;;;;;17.20;7.00;;;;;;;3.16;91.42;98934.44;109149;1257;66683;-62
2023/12/13 12:04:13;;;;;;;12.40;5.40;;;;;;;3.15;91.94;98933.96;109105;1257;73757;-61
2023/12/13 12:07:04;;;;;;;13.20;5.70;;;;;;;3.14;92.32;98933.88;109221;1258;59068;-63
2023/12/13 12:09:55;;;;;;;11.50;5.60;;;;;;;3.12;92.41;98930.02;109052;1257;60351;-62
2023/12/13 12:12:43;;;;;;;15.60;5.60;;;;;;;3.08;92.54;98930.23;109154;1257;72919;-63
2023/12/13 12:15:33;;;;;;;12.40;5.50;;;;;;;3.08;93.22;98928.85;109031;1257;67900;-63
2023/12/13 12:18:21;;;;;;;11.70;5.30;;;;;;;3.09;93.25;98930.33;109140;1257;72686;-61
2023/12/13 12:21:11;;;;;;;13.20;5.50;;;;;;;3.10;93.61;98930.96;109205;1257;56919;-62
2023/12/13 12:23:59;;;;;;;13.50;5.90;;;;;;;3.10;93.82;98928.37;109102;1257;59943;-63
2023/12/13 12:26:48;;;;;;;13.10;5.90;;;;;;;3.10;93.60;98928.55;109114;1257;70783;-63
2023/12/13 12:29:35;;;;;;;13.30;6.10;;;;;;;3.06;93.56;98929.27;109192;1257;67704;-62
2023/12/13 12:32:23;;;;;;;15.00;7.10;;;;;;;3.04;93.21;98934.84;109149;1257;72744;-62
2023/12/13 12:35:11;;;;;;;17.80;7.60;;;;;;;2.99;92.71;98932.38;109033;1256;57485;-64
2023/12/13 12:37:59;;;;;;;15.00;7.10;;;;;;;2.95;92.71;98933.13;109123;1259;60040;-61
2023/12/13 12:40:48;;;;;;;15.10;6.90;;;;;;;2.94;93.18;98929.05;109114;1260;71217;-61
2023/12/13 12:43:37;;;;;;;12.50;5.30;;;;;;;2.92;93.04;98931.60;109097;1257;66565;-61
2023/12/13 12:46:25;;;;;;;11.60;4.40;;;;;;;2.92;93.15;98929.49;109115;1257;72524;-62
2023/12/13 12:49:12;;;;;;;11.30;4.80;;;;;;;2.92;93.32;98925.50;109037;1257;57532;-61
2023/12/13 12:52:02;;;;;;;12.70;4.50;;;;;;;2.93;93.07;98926.84;109119;1260;58715;-64